createdAt,value
2022-09-20T00:03:17.711Z,1.13
2022-09-20T00:09:19.426Z,1.57
2022-09-20T00:15:21.129Z,0.70
2022-09-20T00:21:25.638Z,2.57
2022-09-20T00:27:27.672Z,3.53
2022-09-20T00:33:49.275Z,1.33
2022-09-20T00:39:50.980Z,0.60
2022-09-20T00:45:52.824Z,1.03
2022-09-20T00:51:59.321Z,0.80
2022-09-20T00:58:01.798Z,0.80
2022-09-20T01:04:03.985Z,0.63
2022-09-20T01:10:06.289Z,1.00
2022-09-20T01:16:09.338Z,3.77
2022-09-20T01:22:26.980Z,1.37
2022-09-20T01:28:30.423Z,1.23
2022-09-20T01:34:37.934Z,0.60
2022-09-20T01:41:04.287Z,1.37
2022-09-20T01:47:20.091Z,3.20
2022-09-20T01:53:55.830Z,0.77
2022-09-20T02:00:06.757Z,0.60
2022-09-20T02:06:39.372Z,1.03
2022-09-20T02:12:56.514Z,6.00
2022-09-20T02:19:35.768Z,3.20
2022-09-20T02:25:58.765Z,0.20
2022-09-20T02:32:37.951Z,0.93
2022-09-20T02:39:00.424Z,0.93
2022-09-20T02:45:18.812Z,1.37
2022-09-20T02:51:37.837Z,2.27
2022-09-20T02:58:05.868Z,1.43
2022-09-20T03:04:34.933Z,2.73
2022-09-20T03:10:44.962Z,3.87
2022-09-20T03:17:05.176Z,2.67
2022-09-20T03:23:26.880Z,2.07
2022-09-20T03:29:43.809Z,4.70
2022-09-20T03:36:09.578Z,2.03
2022-09-20T03:42:11.278Z,5.17
2022-09-20T03:48:31.864Z,1.23
2022-09-20T03:55:10.035Z,1.80
2022-09-20T04:01:30.447Z,1.67
2022-09-20T04:07:44.312Z,2.17
2022-09-20T04:14:03.908Z,4.93
2022-09-20T04:20:20.708Z,4.77
2022-09-20T04:26:31.445Z,4.23
2022-09-20T04:32:46.988Z,4.20
2022-09-20T04:38:57.598Z,4.13
2022-09-20T04:45:18.352Z,6.27
2022-09-20T04:51:38.737Z,5.10
2022-09-20T04:57:46.547Z,4.30
2022-09-20T05:03:54.208Z,13.03
2022-09-20T05:10:15.811Z,3.13
2022-09-20T05:16:34.050Z,3.77
2022-09-20T05:23:03.651Z,1.80
2022-09-20T05:29:10.669Z,5.90
2022-09-20T05:35:43.393Z,4.30
2022-09-20T05:41:59.333Z,7.47
2022-09-20T05:48:10.367Z,4.93
2022-09-20T05:54:27.668Z,2.93
2022-09-20T06:01:05.453Z,4.97
2022-09-20T06:14:03.864Z,9.20
2022-09-20T06:33:06.604Z,8.43
2022-09-20T06:39:43.601Z,16.00
2022-09-20T06:45:45.767Z,32.30
2022-09-20T06:52:13.620Z,9.60
2022-09-20T06:58:21.601Z,208.10
2022-09-20T07:04:27.435Z,167.70
2022-09-20T07:11:07.346Z,94.97
2022-09-20T07:17:09.761Z,3.37
2022-09-20T07:23:16.410Z,2.93
2022-09-20T07:29:21.566Z,1.93
2022-09-20T07:35:23.633Z,2.30
2022-09-20T07:41:35.488Z,1.67
2022-09-20T07:47:41.763Z,2.90
2022-09-20T08:00:05.925Z,2.23
2022-09-20T08:06:11.761Z,1.90
2022-09-20T08:18:30.035Z,1.83
2022-09-20T08:24:35.781Z,2.60
2022-09-20T08:30:38.133Z,2.13
2022-09-20T08:36:44.977Z,2.10
2022-09-20T08:42:48.502Z,4.10
2022-09-20T08:55:20.908Z,3.47
2022-09-20T09:08:45.209Z,1.67
2022-09-20T09:21:10.633Z,1.37
2022-09-20T09:33:34.465Z,2.27
2022-09-20T09:39:38.502Z,3.60
2022-09-20T09:45:44.581Z,1.80
2022-09-20T09:52:04.824Z,3.07
2022-09-20T10:05:10.265Z,1.00
2022-09-20T10:18:25.159Z,2.50
2022-09-20T10:24:59.667Z,0.83
2022-09-20T10:38:21.849Z,2.57
2022-09-20T10:44:45.617Z,1.30
2022-09-20T10:51:21.360Z,1.63
2022-09-20T10:57:51.238Z,0.70
2022-09-20T11:04:26.817Z,0.93
2022-09-20T11:30:37.372Z,1.70
2022-09-20T11:37:15.494Z,2.57
2022-09-20T11:43:32.170Z,1.13
2022-09-20T11:50:13.142Z,2.00
2022-09-20T11:56:25.235Z,0.77
2022-09-20T12:02:59.044Z,0.97
2022-09-20T12:09:33.493Z,1.90
2022-09-20T12:15:58.823Z,1.30
2022-09-20T12:22:04.237Z,1.30
2022-09-20T12:28:23.419Z,0.90
2022-09-20T12:34:30.216Z,1.40
2022-09-20T12:40:37.351Z,3.23
2022-09-20T12:46:52.363Z,4.67
2022-09-20T12:52:58.906Z,0.70
2022-09-20T12:59:05.623Z,2.43
2022-09-20T13:05:32.273Z,2.43
2022-09-20T13:11:56.102Z,2.87
2022-09-20T13:18:01.513Z,0.80
2022-09-20T13:24:04.506Z,0.57
2022-09-20T13:30:22.629Z,1.63
2022-09-20T13:36:30.501Z,1.10
2022-09-20T13:49:10.614Z,0.83
2022-09-20T13:55:34.051Z,0.80
2022-09-20T14:02:12.153Z,1.83
2022-09-20T14:08:34.130Z,1.20
2022-09-20T14:14:37.052Z,2.17
2022-09-20T14:20:43.995Z,0.90
2022-09-20T14:27:05.669Z,2.10
2022-09-20T14:33:27.002Z,1.60
2022-09-20T14:39:29.046Z,1.47
2022-09-20T14:45:35.440Z,4.30
2022-09-20T14:51:46.578Z,1.20
2022-09-20T14:57:51.674Z,1.00
2022-09-20T15:03:55.738Z,1.67
2022-09-20T15:09:58.066Z,1.60
2022-09-20T15:16:17.822Z,1.00
2022-09-20T15:22:19.772Z,2.03
2022-09-20T15:28:22.194Z,4.00
2022-09-20T15:34:25.159Z,3.47
2022-09-20T15:40:27.189Z,1.60
2022-09-20T15:46:29.597Z,1.30
2022-09-20T15:52:36.861Z,1.23
2022-09-20T15:58:38.623Z,1.07
2022-09-20T16:04:40.328Z,1.07
2022-09-20T16:10:45.887Z,0.93
2022-09-20T16:16:47.717Z,0.60
2022-09-20T16:22:49.532Z,0.90
2022-09-20T16:28:51.411Z,1.57
2022-09-20T16:34:55.101Z,0.80
2022-09-20T16:40:57.774Z,2.83
2022-09-20T16:46:59.555Z,2.67
2022-09-20T16:53:01.292Z,2.23
2022-09-20T16:59:05.272Z,1.33
2022-09-20T17:05:08.400Z,1.53
2022-09-20T17:11:14.223Z,0.97
2022-09-20T17:17:15.962Z,2.03
2022-09-20T17:23:17.847Z,2.03
2022-09-20T17:29:20.743Z,2.60
2022-09-20T17:35:23.563Z,2.20
2022-09-20T17:41:26.367Z,1.60
2022-09-20T17:47:28.125Z,2.27
2022-09-20T17:53:35.990Z,2.07
2022-09-20T17:59:37.763Z,1.90
2022-09-20T18:05:39.560Z,1.13
2022-09-20T18:11:49.245Z,2.80
2022-09-20T18:17:54.435Z,2.17
2022-09-20T18:23:57.566Z,1.90
2022-09-20T18:29:59.331Z,1.20
2022-09-20T18:36:06.637Z,1.13
2022-09-20T18:42:09.248Z,1.00
2022-09-20T18:48:12.624Z,1.57
2022-09-20T18:54:16.221Z,1.70
2022-09-20T19:00:23.694Z,1.90
2022-09-20T19:06:30.830Z,2.27
2022-09-20T19:12:55.657Z,0.97
2022-09-20T19:19:20.411Z,1.30
2022-09-20T19:25:43.500Z,0.97
2022-09-20T19:31:49.887Z,1.33
2022-09-20T19:38:04.536Z,1.00
2022-09-20T19:44:34.133Z,0.90
2022-09-20T19:50:49.847Z,0.80
2022-09-20T19:56:57.214Z,0.97
2022-09-20T20:02:59.375Z,0.70
2022-09-20T20:09:04.160Z,1.30
2022-09-20T20:15:46.360Z,0.77
2022-09-20T20:21:59.081Z,0.80
2022-09-20T20:28:00.942Z,1.80
2022-09-20T20:34:02.696Z,1.07
2022-09-20T20:40:05.784Z,0.63
2022-09-20T20:46:12.473Z,2.20
2022-09-20T20:52:14.366Z,1.87
2022-09-20T20:58:16.104Z,1.37
2022-09-20T21:04:18.304Z,0.80
2022-09-20T21:10:21.880Z,1.00
2022-09-20T21:16:29.373Z,1.00
2022-09-20T21:22:32.244Z,1.10
2022-09-20T21:28:42.077Z,0.67
2022-09-20T21:34:43.830Z,1.43
2022-09-20T21:40:45.572Z,0.70
2022-09-20T21:46:48.531Z,0.77
2022-09-20T21:52:50.788Z,0.50
2022-09-20T21:58:52.529Z,1.00
2022-09-20T22:04:54.219Z,1.10
2022-09-20T22:10:57.552Z,0.93
2022-09-20T22:17:00.315Z,0.67
2022-09-20T22:23:02.003Z,0.70
2022-09-20T22:29:04.626Z,0.90
2022-09-20T22:35:06.626Z,0.70
2022-09-20T22:41:08.400Z,1.13
2022-09-20T22:47:10.290Z,0.63
2022-09-20T22:53:12.221Z,0.97
2022-09-20T22:59:14.796Z,0.60
2022-09-20T23:05:18.246Z,1.30
2022-09-20T23:11:20.500Z,1.43
2022-09-20T23:17:22.472Z,0.73
2022-09-20T23:23:24.166Z,0.30
2022-09-20T23:29:26.169Z,0.50
2022-09-20T23:35:27.883Z,0.37
2022-09-20T23:41:29.877Z,0.73
2022-09-20T23:47:31.597Z,1.47
2022-09-20T23:53:33.514Z,0.87
2022-09-20T23:59:35.227Z,1.73
